sensor_id;sensor_type;location;lat;lon;timestamp;pressure;altitude;pressure_sealevel;temperature;humidity
26192;BME280;13935;55.672;37.764;2023-07-30T00:00:24;99131.47;;;16.25;100.00
26192;BME280;13935;55.672;37.764;2023-07-30T00:01:26;99136.72;;;16.23;100.00
26192;BME280;13935;55.672;37.764;2023-07-30T00:02:28;99133.91;;;16.23;100.00
26192;BME280;13935;55.672;37.764;2023-07-30T00:03:30;99128.34;;;16.23;100.00
26192;BME280;13935;55.672;37.764;2023-07-30T00:04:32;99126.00;;;16.22;100.00
26192;BME280;13935;55.672;37.764;2023-07-30T00:05:34;99123.97;;;16.22;100.00
26192;BME280;13935;55.672;37.764;2023-07-30T00:06:36;99124.41;;;16.21;100.00
26192;BME280;13935;55.672;37.764;2023-07-30T00:07:38;99119.19;;;16.23;100.00
26192;BME280;13935;55.672;37.764;2023-07-30T00:08:40;99121.19;;;16.22;100.00
26192;BME280;13935;55.672;37.764;2023-07-30T00:09:41;99119.75;;;16.18;100.00
26192;BME280;13935;55.672;37.764;2023-07-30T00:10:43;99119.75;;;16.18;100.00
26192;BME280;13935;55.672;37.764;2023-07-30T00:11:45;99122.09;;;16.19;100.00
26192;BME280;13935;55.672;37.764;2023-07-30T00:12:48;99122.94;;;16.16;100.00
26192;BME280;13935;55.672;37.764;2023-07-30T00:13:49;99117.38;;;16.16;100.00
26192;BME280;13935;55.672;37.764;2023-07-30T00:14:53;99127.00;;;16.15;100.00
26192;BME280;13935;55.672;37.764;2023-07-30T00:15:54;99121.41;;;16.15;100.00
26192;BME280;13935;55.672;37.764;2023-07-30T00:16:56;99123.75;;;16.17;100.00
26192;BME280;13935;55.672;37.764;2023-07-30T00:17:58;99122.38;;;16.09;100.00
26192;BME280;13935;55.672;37.764;2023-07-30T00:19:00;99124.03;;;16.06;100.00
26192;BME280;13935;55.672;37.764;2023-07-30T00:20:02;99125.63;;;16.07;100.00
26192;BME280;13935;55.672;37.764;2023-07-30T00:21:04;99127.19;;;16.08;100.00
26192;BME280;13935;55.672;37.764;2023-07-30T00:22:06;99123.84;;;16.13;100.00
26192;BME280;13935;55.672;37.764;2023-07-30T00:23:08;99128.41;;;16.07;100.00
26192;BME280;13935;55.672;37.764;2023-07-30T00:24:10;99124.81;;;16.07;100.00
26192;BME280;13935;55.672;37.764;2023-07-30T00:25:12;99125.28;;;16.05;100.00
26192;BME280;13935;55.672;37.764;2023-07-30T00:26:14;99124.25;;;15.99;100.00
26192;BME280;13935;55.672;37.764;2023-07-30T00:27:16;99120.69;;;15.99;100.00
26192;BME280;13935;55.672;37.764;2023-07-30T00:28:18;99123.38;;;16.02;100.00
26192;BME280;13935;55.672;37.764;2023-07-30T00:29:20;99121.91;;;15.98;100.00
26192;BME280;13935;55.672;37.764;2023-07-30T00:30:22;99119.88;;;15.98;100.00
26192;BME280;13935;55.672;37.764;2023-07-30T00:31:25;99122.22;;;16.00;100.00
26192;BME280;13935;55.672;37.764;2023-07-30T00:32:27;99120.22;;;16.00;100.00
26192;BME280;13935;55.672;37.764;2023-07-30T00:33:29;99125.81;;;16.00;100.00
26192;BME280;13935;55.672;37.764;2023-07-30T00:34:31;99120.22;;;16.00;100.00
26192;BME280;13935;55.672;37.764;2023-07-30T00:35:33;99123.69;;;16.04;100.00
26192;BME280;13935;55.672;37.764;2023-07-30T00:36:36;99117.34;;;16.04;100.00
26192;BME280;13935;55.672;37.764;2023-07-30T00:37:40;99127.72;;;16.03;100.00
26192;BME280;13935;55.672;37.764;2023-07-30T00:38:42;99124.16;;;16.03;100.00
26192;BME280;13935;55.672;37.764;2023-07-30T00:39:44;99124.91;;;16.03;100.00
26192;BME280;13935;55.672;37.764;2023-07-30T00:40:46;99119.34;;;16.03;100.00
26192;BME280;13935;55.672;37.764;2023-07-30T00:41:49;99118.56;;;16.03;100.00
26192;BME280;13935;55.672;37.764;2023-07-30T00:42:52;99121.00;;;16.01;100.00
26192;BME280;13935;55.672;37.764;2023-07-30T00:43:54;99119.78;;;16.02;100.00
26192;BME280;13935;55.672;37.764;2023-07-30T00:44:56;99121.00;;;16.01;100.00
26192;BME280;13935;55.672;37.764;2023-07-30T00:45:59;99122.47;;;16.05;100.00
26192;BME280;13935;55.672;37.764;2023-07-30T00:47:01;99122.94;;;16.04;100.00
26192;BME280;13935;55.672;37.764;2023-07-30T00:48:03;99122.13;;;16.03;100.00
26192;BME280;13935;55.672;37.764;2023-07-30T00:49:06;99126.59;;;16.01;100.00
26192;BME280;13935;55.672;37.764;2023-07-30T00:50:08;99125.81;;;16.00;100.00
26192;BME280;13935;55.672;37.764;2023-07-30T00:51:13;99122.78;;;15.95;100.00
26192;BME280;13935;55.672;37.764;2023-07-30T00:52:17;99121.91;;;15.98;100.00
26192;BME280;13935;55.672;37.764;2023-07-30T00:53:20;99123.56;;;15.95;100.00
26192;BME280;13935;55.672;37.764;2023-07-30T00:54:23;99124.44;;;15.92;100.00
26192;BME280;13935;55.672;37.764;2023-07-30T00:55:26;99116.41;;;15.94;100.00
26192;BME280;13935;55.672;37.764;2023-07-30T00:56:28;99116.88;;;15.93;100.00
26192;BME280;13935;55.672;37.764;2023-07-30T00:57:31;99116.41;;;15.94;100.00
26192;BME280;13935;55.672;37.764;2023-07-30T00:58:34;99112.59;;;15.88;100.00
26192;BME280;13935;55.672;37.764;2023-07-30T00:59:36;99115.75;;;15.90;100.00
26192;BME280;13935;55.672;37.764;2023-07-30T01:00:39;99116.59;;;15.87;100.00
26192;BME280;13935;55.672;37.764;2023-07-30T01:01:41;99113.16;;;15.83;100.00
26192;BME280;13935;55.672;37.764;2023-07-30T01:02:43;99117.16;;;15.82;100.00
26192;BME280;13935;55.672;37.764;2023-07-30T01:03:45;99118.38;;;15.81;100.00
26192;BME280;13935;55.672;37.764;2023-07-30T01:04:48;99111.13;;;15.84;100.00
26192;BME280;13935;55.672;37.764;2023-07-30T01:05:50;99117.16;;;15.82;100.00
26192;BME280;13935;55.672;37.764;2023-07-30T01:06:52;99110.00;;;15.81;100.00
26192;BME280;13935;55.672;37.764;2023-07-30T01:07:54;99107.97;;;15.82;100.00
26192;BME280;13935;55.672;37.764;2023-07-30T01:08:56;99110.09;;;15.78;100.00
26192;BME280;13935;55.672;37.764;2023-07-30T01:09:58;99106.53;;;15.77;100.00
26192;BME280;13935;55.672;37.764;2023-07-30T01:11:02;99110.53;;;15.76;100.00
26192;BME280;13935;55.672;37.764;2023-07-30T01:12:04;99108.97;;;15.75;100.00
26192;BME280;13935;55.672;37.764;2023-07-30T01:13:07;99112.63;;;15.72;100.00
26192;BME280;13935;55.672;37.764;2023-07-30T01:14:10;99109.84;;;15.72;100.00
26192;BME280;13935;55.672;37.764;2023-07-30T01:15:12;99114.56;;;15.75;100.00
26192;BME280;13935;55.672;37.764;2023-07-30T01:16:15;99115.78;;;15.74;100.00
26192;BME280;13935;55.672;37.764;2023-07-30T01:17:18;99110.19;;;15.74;100.00
26192;BME280;13935;55.672;37.764;2023-07-30T01:18:20;99114.56;;;15.75;100.00
26192;BME280;13935;55.672;37.764;2023-07-30T01:19:22;99119.00;;;15.73;100.00
26192;BME280;13935;55.672;37.764;2023-07-30T01:20:23;99119.47;;;15.72;100.00
26192;BME280;13935;55.672;37.764;2023-07-30T01:21:26;99116.31;;;15.70;100.00
26192;BME280;13935;55.672;37.764;2023-07-30T01:22:28;99119.88;;;15.70;100.00
26192;BME280;13935;55.672;37.764;2023-07-30T01:23:30;99116.31;;;15.70;100.00
26192;BME280;13935;55.672;37.764;2023-07-30T01:24:32;99124.00;;;15.66;100.00
26192;BME280;13935;55.672;37.764;2023-07-30T01:25:35;99122.44;;;15.65;100.00
26192;BME280;13935;55.672;37.764;2023-07-30T01:26:40;99119.63;;;15.65;100.00
26192;BME280;13935;55.672;37.764;2023-07-30T01:27:47;99115.63;;;15.66;100.00
26192;BME280;13935;55.672;37.764;2023-07-30T01:28:51;99117.09;;;15.70;100.00
26192;BME280;13935;55.672;37.764;2023-07-30T01:29:59;99118.66;;;15.71;100.00
26192;BME280;13935;55.672;37.764;2023-07-30T01:31:03;99121.53;;;15.68;100.00
26192;BME280;13935;55.672;37.764;2023-07-30T01:32:07;99111.59;;;15.67;100.00
26192;BME280;13935;55.672;37.764;2023-07-30T01:33:12;99119.97;;;15.67;100.00
26192;BME280;13935;55.672;37.764;2023-07-30T01:34:14;99109.16;;;15.69;100.00
26192;BME280;13935;55.672;37.764;2023-07-30T01:35:16;99122.75;;;15.67;100.00
26192;BME280;13935;55.672;37.764;2023-07-30T01:36:20;99113.16;;;15.68;100.00
26192;BME280;13935;55.672;37.764;2023-07-30T01:37:22;99119.63;;;15.65;100.00
26192;BME280;13935;55.672;37.764;2023-07-30T01:38:25;99110.06;;;15.66;100.00
26192;BME280;13935;55.672;37.764;2023-07-30T01:39:27;99115.97;;;15.68;100.00
26192;BME280;13935;55.672;37.764;2023-07-30T01:40:30;99114.56;;;15.60;100.00
26192;BME280;13935;55.672;37.764;2023-07-30T01:41:32;99121.41;;;15.59;100.00
26192;BME280;13935;55.672;37.764;2023-07-30T01:42:34;99119.63;;;15.65;100.00
26192;BME280;13935;55.672;37.764;2023-07-30T01:43:36;99120.50;;;15.62;100.00
26192;BME280;13935;55.672;37.764;2023-07-30T01:44:38;99120.50;;;15.62;100.00
26192;BME280;13935;55.672;37.764;2023-07-30T01:45:40;99118.94;;;15.61;100.00
26192;BME280;13935;55.672;37.764;2023-07-30T01:46:42;99116.50;;;15.63;100.00
26192;BME280;13935;55.672;37.764;2023-07-30T01:47:44;99118.06;;;15.64;100.00
26192;BME280;13935;55.672;37.764;2023-07-30T01:48:46;99121.41;;;15.59;100.00
26192;BME280;13935;55.672;37.764;2023-07-30T01:49:48;99121.41;;;15.59;100.00
26192;BME280;13935;55.672;37.764;2023-07-30T01:50:50;99118.16;;;15.60;100.00
26192;BME280;13935;55.672;37.764;2023-07-30T01:51:52;99128.19;;;15.58;100.00
26192;BME280;13935;55.672;37.764;2023-07-30T01:52:54;99117.47;;;15.56;100.00
26192;BME280;13935;55.672;37.764;2023-07-30T01:53:56;99122.16;;;15.59;100.00
26192;BME280;13935;55.672;37.764;2023-07-30T01:54:58;99126.09;;;15.62;100.00
26192;BME280;13935;55.672;37.764;2023-07-30T01:56:03;99132.00;;;15.64;100.00
26192;BME280;13935;55.672;37.764;2023-07-30T01:57:05;99126.44;;;15.64;100.00
26192;BME280;13935;55.672;37.764;2023-07-30T01:58:07;99126.44;;;15.64;100.00
26192;BME280;13935;55.672;37.764;2023-07-30T01:59:09;99134.81;;;15.64;100.00
26192;BME280;13935;55.672;37.764;2023-07-30T02:00:11;99125.22;;;15.65;100.00
26192;BME280;13935;55.672;37.764;2023-07-30T02:01:15;99127.56;;;15.66;100.00
26192;BME280;13935;55.672;37.764;2023-07-30T02:02:17;99129.13;;;15.67;100.00
26192;BME280;13935;55.672;37.764;2023-07-30T02:03:19;99135.16;;;15.66;100.00
26192;BME280;13935;55.672;37.764;2023-07-30T02:04:21;99124.31;;;15.68;100.00
26192;BME280;13935;55.672;37.764;2023-07-30T02:05:24;99120.31;;;15.69;100.00
26192;BME280;13935;55.672;37.764;2023-07-30T02:06:26;99121.78;;;15.73;100.00
26192;BME280;13935;55.672;37.764;2023-07-30T02:07:28;99114.56;;;15.75;100.00
26192;BME280;13935;55.672;37.764;2023-07-30T02:08:30;99115.22;;;15.79;100.00
26192;BME280;13935;55.672;37.764;2023-07-30T02:09:31;99114.56;;;15.75;100.00
26192;BME280;13935;55.672;37.764;2023-07-30T02:10:35;99112.13;;;15.77;100.00
26192;BME280;13935;55.672;37.764;2023-07-30T02:11:37;99118.47;;;15.78;100.00
26192;BME280;13935;55.672;37.764;2023-07-30T02:12:39;99120.81;;;15.79;100.00
26192;BME280;13935;55.672;37.764;2023-07-30T02:13:41;99115.22;;;15.79;100.00
26192;BME280;13935;55.672;37.764;2023-07-30T02:14:44;99121.50;;;15.83;100.00
26192;BME280;13935;55.672;37.764;2023-07-30T02:15:47;99115.84;;;15.87;100.00
26192;BME280;13935;55.672;37.764;2023-07-30T02:16:50;99122.88;;;15.91;100.00
26192;BME280;13935;55.672;37.764;2023-07-30T02:17:52;99114.06;;;15.93;100.00
26192;BME280;13935;55.672;37.764;2023-07-30T02:18:54;99116.88;;;15.93;100.00
26192;BME280;13935;55.672;37.764;2023-07-30T02:19:56;99119.31;;;15.91;100.00
26192;BME280;13935;55.672;37.764;2023-07-30T02:20:59;99120.44;;;15.93;100.00
26192;BME280;13935;55.672;37.764;2023-07-30T02:22:02;99119.66;;;15.93;100.00
26192;BME280;13935;55.672;37.764;2023-07-30T02:23:04;99120.44;;;15.93;100.00
26192;BME280;13935;55.672;37.764;2023-07-30T02:24:06;99119.56;;;15.96;100.00
26192;BME280;13935;55.672;37.764;2023-07-30T02:25:11;99120.69;;;15.99;100.00
26192;BME280;13935;55.672;37.764;2023-07-30T02:26:13;99129.28;;;16.04;100.00
26192;BME280;13935;55.672;37.764;2023-07-30T02:27:15;99131.97;;;16.08;100.00
26192;BME280;13935;55.672;37.764;2023-07-30T02:28:17;99128.41;;;16.07;100.00
26192;BME280;13935;55.672;37.764;2023-07-30T02:29:19;99124.72;;;16.10;100.00
26192;BME280;13935;55.672;37.764;2023-07-30T02:30:21;99119.13;;;16.10;100.00
26192;BME280;13935;55.672;37.764;2023-07-30T02:31:23;99121.41;;;16.15;100.00
26192;BME280;13935;55.672;37.764;2023-07-30T02:32:25;99121.28;;;16.19;100.00
26192;BME280;13935;55.672;37.764;2023-07-30T02:33:26;99122.75;;;16.23;100.00
26192;BME280;13935;55.672;37.764;2023-07-30T02:34:29;99124.31;;;16.24;100.00
26192;BME280;13935;55.672;37.764;2023-07-30T02:35:31;99121.88;;;16.26;100.00
26192;BME280;13935;55.672;37.764;2023-07-30T02:36:33;99121.00;;;16.29;100.00
26192;BME280;13935;55.672;37.764;2023-07-30T02:37:35;99122.75;;;16.23;100.00
26192;BME280;13935;55.672;37.764;2023-07-30T02:38:36;99121.81;;;16.30;100.00
26192;BME280;13935;55.672;37.764;2023-07-30T02:39:38;99126.41;;;16.36;100.00
26192;BME280;13935;55.672;37.764;2023-07-30T02:40:40;99121.72;;;16.33;100.00
26192;BME280;13935;55.672;37.764;2023-07-30T02:41:42;99130.41;;;16.35;100.00
26192;BME280;13935;55.672;37.764;2023-07-30T02:42:44;99133.00;;;16.42;100.00
26192;BME280;13935;55.672;37.764;2023-07-30T02:43:46;99130.91;;;16.46;100.00
26192;BME280;13935;55.672;37.764;2023-07-30T02:44:50;99127.97;;;16.49;100.00
26192;BME280;13935;55.672;37.764;2023-07-30T02:45:52;99119.06;;;16.54;100.00
26192;BME280;13935;55.672;37.764;2023-07-30T02:46:54;99129.78;;;16.56;100.00
26192;BME280;13935;55.672;37.764;2023-07-30T02:47:56;99129.78;;;16.56;100.00
26192;BME280;13935;55.672;37.764;2023-07-30T02:48:57;99128.00;;;16.62;100.00
26192;BME280;13935;55.672;37.764;2023-07-30T02:50:00;99124.66;;;16.67;100.00
26192;BME280;13935;55.672;37.764;2023-07-30T02:51:03;99118.31;;;16.66;100.00
26192;BME280;13935;55.672;37.764;2023-07-30T02:52:06;99125.22;;;16.74;100.00
26192;BME280;13935;55.672;37.764;2023-07-30T02:53:08;99127.38;;;16.83;100.00
26192;BME280;13935;55.672;37.764;2023-07-30T02:54:10;99120.31;;;16.78;100.00
26192;BME280;13935;55.672;37.764;2023-07-30T02:55:12;99128.16;;;16.96;100.00
26192;BME280;13935;55.672;37.764;2023-07-30T02:56:14;99125.78;;;17.07;100.00
26192;BME280;13935;55.672;37.764;2023-07-30T02:57:16;99125.88;;;17.40;100.00
26192;BME280;13935;55.672;37.764;2023-07-30T02:58:18;99125.94;;;17.62;100.00
26192;BME280;13935;55.672;37.764;2023-07-30T02:59:20;99119.78;;;17.67;100.00
26192;BME280;13935;55.672;37.764;2023-07-30T03:00:22;99119.94;;;17.85;100.00
26192;BME280;13935;55.672;37.764;2023-07-30T03:01:24;99112.91;;;17.80;100.00
26192;BME280;13935;55.672;37.764;2023-07-30T03:02:26;99116.66;;;17.65;100.00
26192;BME280;13935;55.672;37.764;2023-07-30T03:03:28;99110.75;;;17.84;100.00
26192;BME280;13935;55.672;37.764;2023-07-30T03:04:30;99109.13;;;17.74;100.00
26192;BME280;13935;55.672;37.764;2023-07-30T03:05:33;99109.00;;;17.78;100.00
26192;BME280;13935;55.672;37.764;2023-07-30T03:06:35;99115.38;;;17.78;100.00
26192;BME280;13935;55.672;37.764;2023-07-30T03:07:37;99122.53;;;17.79;100.00
26192;BME280;13935;55.672;37.764;2023-07-30T03:08:39;99113.91;;;17.74;100.00
26192;BME280;13935;55.672;37.764;2023-07-30T03:09:41;99120.59;;;17.88;100.00
26192;BME280;13935;55.672;37.764;2023-07-30T03:10:43;99110.06;;;18.14;100.00
26192;BME280;13935;55.672;37.764;2023-07-30T03:11:45;99119.59;;;18.38;100.00
26192;BME280;13935;55.672;37.764;2023-07-30T03:12:48;99111.13;;;18.29;100.00
26192;BME280;13935;55.672;37.764;2023-07-30T03:13:49;99116.97;;;18.43;100.00
26192;BME280;13935;55.672;37.764;2023-07-30T03:14:51;99107.38;;;18.83;100.00
26192;BME280;13935;55.672;37.764;2023-07-30T03:15:53;99112.88;;;19.26;100.00
26192;BME280;13935;55.672;37.764;2023-07-30T03:16:56;99111.75;;;20.08;100.00
26192;BME280;13935;55.672;37.764;2023-07-30T03:17:58;99104.25;;;20.90;100.00
26192;BME280;13935;55.672;37.764;2023-07-30T03:19:00;99089.44;;;21.55;100.00
26192;BME280;13935;55.672;37.764;2023-07-30T03:20:02;99098.78;;;21.60;100.00
26192;BME280;13935;55.672;37.764;2023-07-30T03:21:05;99093.56;;;22.29;100.00
26192;BME280;13935;55.672;37.764;2023-07-30T03:22:08;99096.66;;;22.45;100.00
26192;BME280;13935;55.672;37.764;2023-07-30T03:23:09;99100.47;;;22.19;100.00
26192;BME280;13935;55.672;37.764;2023-07-30T03:24:12;99098.25;;;21.39;100.00
26192;BME280;13935;55.672;37.764;2023-07-30T03:25:13;99097.34;;;21.33;100.00
26192;BME280;13935;55.672;37.764;2023-07-30T03:26:15;99104.50;;;21.10;100.00
26192;BME280;13935;55.672;37.764;2023-07-30T03:27:17;99108.47;;;20.95;100.00
26192;BME280;13935;55.672;37.764;2023-07-30T03:28:19;99103.53;;;20.63;100.00
26192;BME280;13935;55.672;37.764;2023-07-30T03:29:21;99106.25;;;20.58;100.00
26192;BME280;13935;55.672;37.764;2023-07-30T03:30:23;99106.09;;;20.43;100.00
26192;BME280;13935;55.672;37.764;2023-07-30T03:31:25;99109.84;;;20.31;100.00
26192;BME280;13935;55.672;37.764;2023-07-30T03:32:27;99108.16;;;20.34;100.00
26192;BME280;13935;55.672;37.764;2023-07-30T03:33:29;99110.50;;;20.35;100.00
26192;BME280;13935;55.672;37.764;2023-07-30T03:34:31;99104.41;;;20.28;100.00
26192;BME280;13935;55.672;37.764;2023-07-30T03:35:33;99109.44;;;20.15;100.00
26192;BME280;13935;55.672;37.764;2023-07-30T03:36:36;99109.59;;;20.03;100.00
26192;BME280;13935;55.672;37.764;2023-07-30T03:37:39;99109.59;;;20.03;100.00
26192;BME280;13935;55.672;37.764;2023-07-30T03:38:41;99116.94;;;20.09;100.00
26192;BME280;13935;55.672;37.764;2023-07-30T03:39:44;99109.13;;;20.13;100.00
26192;BME280;13935;55.672;37.764;2023-07-30T03:40:45;99108.81;;;20.20;100.00
26192;BME280;13935;55.672;37.764;2023-07-30T03:41:48;99109.28;;;20.09;100.00
26192;BME280;13935;55.672;37.764;2023-07-30T03:42:49;99116.44;;;19.93;100.00
26192;BME280;13935;55.672;37.764;2023-07-30T03:43:51;99116.44;;;20.10;100.00
26192;BME280;13935;55.672;37.764;2023-07-30T03:44:53;99112.06;;;20.18;100.00
26192;BME280;13935;55.672;37.764;2023-07-30T03:45:55;99113.31;;;19.91;100.00
26192;BME280;13935;55.672;37.764;2023-07-30T03:46:57;99118.63;;;19.98;100.00
26192;BME280;13935;55.672;37.764;2023-07-30T03:47:59;99121.75;;;20.08;100.00
26192;BME280;13935;55.672;37.764;2023-07-30T03:49:01;99119.41;;;20.16;100.00
26192;BME280;13935;55.672;37.764;2023-07-30T03:50:03;99121.72;;;20.26;100.00
26192;BME280;13935;55.672;37.764;2023-07-30T03:51:05;99113.94;;;20.30;100.00
26192;BME280;13935;55.672;37.764;2023-07-30T03:52:10;99111.38;;;20.50;100.00
26192;BME280;13935;55.672;37.764;2023-07-30T03:53:11;99124.41;;;20.98;100.00
26192;BME280;13935;55.672;37.764;2023-07-30T03:54:13;99115.06;;;21.56;100.00
26192;BME280;13935;55.672;37.764;2023-07-30T03:55:15;99120.31;;;22.10;100.00
26192;BME280;13935;55.672;37.764;2023-07-30T03:56:17;99115.63;;;22.88;100.00
26192;BME280;13935;55.672;37.764;2023-07-30T03:57:19;99115.56;;;23.66;100.00
26192;BME280;13935;55.672;37.764;2023-07-30T03:58:21;99117.91;;;24.07;100.00
26192;BME280;13935;55.672;37.764;2023-07-30T03:59:23;99119.94;;;25.02;100.00
26192;BME280;13935;55.672;37.764;2023-07-30T04:00:25;99112.63;;;24.90;100.00
26192;BME280;13935;55.672;37.764;2023-07-30T04:01:27;99127.44;;;25.36;99.50
26192;BME280;13935;55.672;37.764;2023-07-30T04:02:30;99125.88;;;25.35;98.77
26192;BME280;13935;55.672;37.764;2023-07-30T04:03:32;99121.06;;;26.41;93.16
26192;BME280;13935;55.672;37.764;2023-07-30T04:04:34;99128.41;;;27.07;86.14
26192;BME280;13935;55.672;37.764;2023-07-30T04:05:36;99129.19;;;27.30;79.82
26192;BME280;13935;55.672;37.764;2023-07-30T04:06:38;99128.13;;;28.38;79.32
26192;BME280;13935;55.672;37.764;2023-07-30T04:07:40;99131.66;;;28.95;71.39
26192;BME280;13935;55.672;37.764;2023-07-30T04:08:42;99131.09;;;29.32;63.88
26192;BME280;13935;55.672;37.764;2023-07-30T04:09:44;99134.81;;;27.73;73.10
26192;BME280;13935;55.672;37.764;2023-07-30T04:10:46;99127.41;;;28.16;70.60
26192;BME280;13935;55.672;37.764;2023-07-30T04:11:50;99133.38;;;29.09;66.48
26192;BME280;13935;55.672;37.764;2023-07-30T04:12:52;99138.88;;;30.08;60.27
26192;BME280;13935;55.672;37.764;2023-07-30T04:13:54;99139.56;;;28.79;63.23
26192;BME280;13935;55.672;37.764;2023-07-30T04:14:56;99135.03;;;29.82;62.41
26192;BME280;13935;55.672;37.764;2023-07-30T04:15:59;99136.00;;;29.31;59.77
26192;BME280;13935;55.672;37.764;2023-07-30T04:17:02;99140.59;;;29.45;60.11
26192;BME280;13935;55.672;37.764;2023-07-30T04:18:04;99132.28;;;29.12;61.06
26192;BME280;13935;55.672;37.764;2023-07-30T04:19:06;99139.88;;;29.87;62.68
26192;BME280;13935;55.672;37.764;2023-07-30T04:20:08;99139.19;;;28.93;65.78
26192;BME280;13935;55.672;37.764;2023-07-30T04:21:13;99134.69;;;28.06;67.13
26192;BME280;13935;55.672;37.764;2023-07-30T04:22:17;99135.31;;;28.50;67.21
26192;BME280;13935;55.672;37.764;2023-07-30T04:23:18;99135.13;;;28.32;66.72
26192;BME280;13935;55.672;37.764;2023-07-30T04:24:21;99138.97;;;27.23;73.42
26192;BME280;13935;55.672;37.764;2023-07-30T04:25:23;99134.03;;;26.69;74.97
26192;BME280;13935;55.672;37.764;2023-07-30T04:26:25;99139.81;;;26.27;80.14
26192;BME280;13935;55.672;37.764;2023-07-30T04:27:27;99137.88;;;26.66;77.81
26192;BME280;13935;55.672;37.764;2023-07-30T04:28:32;99138.94;;;26.85;79.35
26192;BME280;13935;55.672;37.764;2023-07-30T04:29:34;99138.34;;;26.37;80.61
26192;BME280;13935;55.672;37.764;2023-07-30T04:30:36;99135.66;;;26.17;84.70
26192;BME280;13935;55.672;37.764;2023-07-30T04:31:38;99137.53;;;26.31;87.20
26192;BME280;13935;55.672;37.764;2023-07-30T04:32:41;99138.19;;;26.04;85.16
26192;BME280;13935;55.672;37.764;2023-07-30T04:33:43;99130.41;;;26.63;84.42
26192;BME280;13935;55.672;37.764;2023-07-30T04:34:45;99136.88;;;26.69;80.46
26192;BME280;13935;55.672;37.764;2023-07-30T04:35:47;99141.03;;;27.34;75.32
26192;BME280;13935;55.672;37.764;2023-07-30T04:36:49;99146.19;;;27.51;75.63
26192;BME280;13935;55.672;37.764;2023-07-30T04:37:52;99150.31;;;27.72;72.46
26192;BME280;13935;55.672;37.764;2023-07-30T04:38:54;99146.75;;;27.12;76.08
26192;BME280;13935;55.672;37.764;2023-07-30T04:40:03;99149.75;;;26.70;76.02
26192;BME280;13935;55.672;37.764;2023-07-30T04:41:05;99151.38;;;27.04;74.75
26192;BME280;13935;55.672;37.764;2023-07-30T04:42:13;99150.47;;;28.07;72.33
26192;BME280;13935;55.672;37.764;2023-07-30T04:43:18;99152.28;;;28.10;70.45
26192;BME280;13935;55.672;37.764;2023-07-30T04:44:25;99147.63;;;28.69;71.02
26192;BME280;13935;55.672;37.764;2023-07-30T04:45:28;99150.03;;;27.81;69.24
26192;BME280;13935;55.672;37.764;2023-07-30T04:46:30;99146.22;;;27.46;72.22
26192;BME280;13935;55.672;37.764;2023-07-30T04:47:35;99156.56;;;27.22;75.62
26192;BME280;13935;55.672;37.764;2023-07-30T04:48:37;99152.72;;;26.23;76.42
26192;BME280;13935;55.672;37.764;2023-07-30T04:49:40;99159.03;;;26.01;78.54
26192;BME280;13935;55.672;37.764;2023-07-30T04:50:42;99153.94;;;25.64;85.04
26192;BME280;13935;55.672;37.764;2023-07-30T04:51:44;99152.75;;;25.81;84.44
26192;BME280;13935;55.672;37.764;2023-07-30T04:52:46;99156.81;;;25.33;87.79
26192;BME280;13935;55.672;37.764;2023-07-30T04:53:48;99158.75;;;25.52;89.36
26192;BME280;13935;55.672;37.764;2023-07-30T04:54:50;99156.19;;;24.93;91.55
26192;BME280;13935;55.672;37.764;2023-07-30T04:55:56;99159.31;;;25.00;92.36
26192;BME280;13935;55.672;37.764;2023-07-30T04:57:01;99165.53;;;25.04;91.37
26192;BME280;13935;55.672;37.764;2023-07-30T04:58:03;99164.97;;;24.30;97.89
26192;BME280;13935;55.672;37.764;2023-07-30T04:59:05;99162.31;;;24.21;96.97
26192;BME280;13935;55.672;37.764;2023-07-30T05:00:07;99164.63;;;23.82;100.00
26192;BME280;13935;55.672;37.764;2023-07-30T05:01:09;99154.38;;;24.05;100.00
26192;BME280;13935;55.672;37.764;2023-07-30T05:02:13;99161.31;;;24.44;98.18
26192;BME280;13935;55.672;37.764;2023-07-30T05:03:15;99161.28;;;24.63;96.25
26192;BME280;13935;55.672;37.764;2023-07-30T05:04:17;99162.81;;;24.90;95.13
26192;BME280;13935;55.672;37.764;2023-07-30T05:05:19;99165.94;;;24.92;94.35
26192;BME280;13935;55.672;37.764;2023-07-30T05:06:21;99165.78;;;25.68;89.29
26192;BME280;13935;55.672;37.764;2023-07-30T05:07:24;99166.16;;;24.88;94.13
26192;BME280;13935;55.672;37.764;2023-07-30T05:08:26;99161.28;;;24.63;94.72
26192;BME280;13935;55.672;37.764;2023-07-30T05:09:28;99171.81;;;24.88;93.10
26192;BME280;13935;55.672;37.764;2023-07-30T05:10:30;99169.81;;;25.20;89.62
26192;BME280;13935;55.672;37.764;2023-07-30T05:11:32;99175.16;;;25.12;93.80
26192;BME280;13935;55.672;37.764;2023-07-30T05:12:35;99173.25;;;24.78;94.35
26192;BME280;13935;55.672;37.764;2023-07-30T05:13:37;99167.78;;;25.20;92.78
26192;BME280;13935;55.672;37.764;2023-07-30T05:14:43;99168.34;;;25.66;87.95
26192;BME280;13935;55.672;37.764;2023-07-30T05:15:51;99164.28;;;26.94;79.70
26192;BME280;13935;55.672;37.764;2023-07-30T05:17:00;99172.25;;;26.90;75.85
26192;BME280;13935;55.672;37.764;2023-07-30T05:18:09;99166.25;;;26.55;77.88
26192;BME280;13935;55.672;37.764;2023-07-30T05:19:16;99159.59;;;26.80;76.89
26192;BME280;13935;55.672;37.764;2023-07-30T05:20:22;99168.03;;;26.47;77.23
26192;BME280;13935;55.672;37.764;2023-07-30T05:21:42;99172.06;;;26.24;76.72
26192;BME280;13935;55.672;37.764;2023-07-30T05:22:46;99174.50;;;26.53;77.73
26192;BME280;13935;55.672;37.764;2023-07-30T05:23:50;99176.22;;;26.34;75.85